68C weather

Central County Airport
Iola, Wisconsin, United States

Public forecast

Using degrees Fahrenheit for public forecast. Weather courtesy of forecast.io.

Closest aviation weather report (METAR) to Central County Airport

Closest report is Waupaca Municipal Airport, 10.3 nm (19.2 km) S. Retrieved 2019/10/23 20:35 UTC (0 seconds ago):

KPCZ 232035Z AUTO 26007KT 10SM SCT038 11/02 A2987 RMK AO2 T01120021

Closest aviation forecast (TAF) to Central County Airport

Closest forecast is Appleton International Airport, 26.3 nm (48.7 km) SE. Retrieved 2019/10/23 18:39 UTC (2 hours ago):

TAF KATW 231737Z 2318/2418 26010G17KT P6SM SCT025 FM231900 25012KT P6SM BKN080 FM232300 26006KT P6SM OVC035 FM240000 28005KT P6SM -SHRA SCT025 OVC040 FM240400 29006KT P6SM SCT060 FM241500 29009KT P6SM SCT045